Airfield :
LOGIN :

Register | Disclaimer

   EN    FR    IT 

 










Legend :    VFR   Marginal VFR   IFR   Intensive IFR   Very Intensive IFR
Visi :
Ceiling :
>= 8 km
>= 3000ft
5 to 8 km
1000 to 3000 ft
1500m to 5 km
500 to 1000 ft
800 to 1500m
200 to 500 ft
< 800m
< 200 ft
Symbols :   Thunderstorms  Fog  Heavy snow  Heavy precipitations  Wind > 20 kt
SIGMETs :     Misc.  Thunderstorms  Icing  Turbulence  Mountain Waves  Volcanic Ashes






- Airport Elevation : 1487 ft
- IATA code : MUC


EDDM - München Franz Josef Strauss

CURRENT METAR :
  • 281850Z AUTO VRB02KT CAVOK 13/02 Q1016 NOSIG

EXPIRED METARs :
  • 281820Z AUTO 32005KT CAVOK 14/02 Q1016 NOSIG
  • 281750Z AUTO 31006KT CAVOK 15/01 Q1016 NOSIG
  • 281720Z AUTO 31008KT CAVOK 15/02 Q1016 NOSIG
  • 281650Z AUTO 32006KT 290V360 CAVOK 15/03 Q1016 NOSIG
  • 281620Z AUTO 34006KT 290V050 CAVOK 16/03 Q1017 NOSIG

TAF TAF EDDM
Valid from the 28 at 18:00 until the 30 at 00:00 UTC


281700Z 2818/2924 33004KT 9999 FEW025
PROB40
TEMPO 2911/2916 4000 TSRA BKN020CB



MET'MAP, your aeronautical weather chart ! - Copyright ORBIFLY December 2007 - Disclaimer

ORBIFLY MET'MAP TEAM :

Programming & Development : Alexandra Zaïnal
Original concept : Baudouin d'Aumeries
Technical & hardware support : Manuel Goepfert
Assistance : Marc-Olivier Méhu

Contact : metmap@orbifly.com




SOURCES & CREDITS :

   NOAA